Flight Track Log - Related Links

Times and Time Zones

All times are in EDT time to prevent confusion due to time zone crossing. See the SWA407 flight status page for this flight to view local times or setup timezone preferences in your user account.

Time Position Orientation Groundspeed Altitude Reporting Facility
EDT Latitude Longitude Course Direction KTS MPH feet Rate Location/Type
Fri 07:13:50 PM 42.9500 -78.7167 110° East 160 184 1,600  Level Buffalo TRACON
Fri 07:15:27 PM 42.9317 -78.6492 110° East 225 259 5,900 2,790 Climbing Cleveland Center
Fri 07:16:27 PM 42.8464 -78.6492 180° South 245 282 8,900 3,000 Climbing Cleveland Center
Fri 07:17:27 PM 42.7647 -78.6375 174° South 279 321 11,900 3,250 Climbing Cleveland Center
Fri 07:18:27 PM 42.6761 -78.5611 148° Southeast 331 381 15,400 3,076 Climbing Cleveland Center
Fri 07:19:26 PM 42.5806 -78.4739 146° Southeast 361 415 18,000 2,874 Climbing Cleveland Center
Fri 07:20:26 PM 42.4831 -78.3842 146° Southeast 409 471 21,100 2,800 Climbing Cleveland Center
Fri 07:21:26 PM 42.3792 -78.2894 146° Southeast 438 504 23,600 1,950 Climbing Cleveland Center
Fri 07:22:26 PM 42.2750 -78.1950 146° Southeast 449 517 25,000 522 Climbing Cleveland Center
Fri 07:24:07 PM 42.1050 -78.0414 146° Southeast 435 501 25,000  Level New York Center
Fri 07:25:07 PM 42.0081 -77.9556 147° Southeast 453 521 25,000  Level New York Center
Fri 07:26:08 PM 41.8956 -77.8542 146° Southeast 467 537 25,000  Level New York Center
Fri 07:27:08 PM 41.7806 -77.7528 147° Southeast 481 554 25,000  Level New York Center
Fri 07:28:06 PM 41.6700 -77.6497 145° Southeast 486 559 25,000  Level New York Center
Fri 07:29:07 PM 41.5550 -77.5492 147° Southeast 486 559 25,000 -295 Level New York Center
Fri 07:30:08 PM 41.4319 -77.4425 147° Southeast 486 559 24,400 -807 Descending New York Center
Fri 07:31:06 PM 41.3186 -77.3456 147° Southeast 486 559 23,400 -1,008 Descending New York Center
Fri 07:32:07 PM 41.2114 -77.2497 146° Southeast 480 552 22,400 -992 Descending New York Center
Fri 07:33:07 PM 41.1058 -77.1569 146° Southeast 470 541 21,400 -1,008 Descending New York Center
Fri 07:34:06 PM 41.0022 -77.0675 147° Southeast 456 525 20,400 -1,000 Descending New York Center
Fri 07:35:07 PM 40.9025 -76.9842 148° Southeast 446 513 19,400 -1,033 Descending New York Center
Fri 07:36:08 PM 40.8047 -76.8986 146° Southeast 429 494 18,300 -1,059 Descending New York Center
Fri 07:37:06 PM 40.7183 -76.7975 138° Southeast 422 486 17,300 -966 Descending New York Center
Fri 07:38:06 PM 40.6336 -76.7000 139° Southeast 422 486 16,400 -992 Descending New York Center
Fri 07:39:07 PM 40.5514 -76.5944 136° Southeast 411 473 15,300 -639 Descending New York Center
Fri 07:40:08 PM 40.4783 -76.5092 138° Southeast 405 466 15,100 -198 Descending New York Center
Fri 07:41:08 PM 40.3881 -76.4389 149° Southeast 394 453 14,900 -661 Descending New York Center
Fri 07:42:06 PM 40.2844 -76.4658 191° South 341 392 13,800 -1,017 Descending New York Center
Fri 07:43:06 PM 40.1881 -76.4797 186° South 352 405 12,900 -564 Descending New York Center
Fri 07:45:07 PM 40.0000 -76.5167 189° South 341 392 12,100 -274 Descending Potomac TRACON
Fri 07:46:01 PM 39.9167 -76.5333 189° South 341 392 12,100 -105 Level Potomac TRACON
Fri 07:47:01 PM 39.8167 -76.5333 180° South 347 399 11,900 -650 Descending Potomac TRACON
Fri 07:48:01 PM 39.7333 -76.5000 163° South 331 381 10,800 -1,300 Descending Potomac TRACON
Fri 07:49:01 PM 39.6500 -76.4667 163° South 317 365 9,300 -1,300 Descending Potomac TRACON
Fri 07:50:01 PM 39.5667 -76.4333 163° South 303 349 8,200 -1,263 Descending Potomac TRACON
Fri 07:50:55 PM 39.4833 -76.4167 171° South 290 334 6,900 -1,474 Descending Potomac TRACON
Fri 07:51:55 PM 39.4167 -76.3833 159° South 286 329 5,400 -950 Descending Potomac TRACON
Fri 07:52:55 PM 39.3333 -76.4167 197° South 271 312 5,000 -190 Descending Potomac TRACON
Fri 07:54:01 PM 39.2667 -76.4333 191° South 243 280 5,000 -350 Level Potomac TRACON
Fri 07:54:55 PM 39.2000 -76.4667 201° Southwest 236 272 4,300 -842 Descending Potomac TRACON
Fri 07:55:55 PM 39.1500 -76.4833 194° South 229 264 3,400 -650 Descending Potomac TRACON
Fri 07:56:55 PM 39.0833 -76.5000 191° South 228 262 3,000 -263 Descending Potomac TRACON
Fri 07:57:49 PM 39.0500 -76.5333 218° Southwest 176 203 2,900 -368 Descending Potomac TRACON
Fri 07:58:49 PM 39.0667 -76.5833 293° West 127 146 2,300 -571 Descending Potomac TRACON
Fri 07:59:55 PM 39.1000 -76.6000 339° North 126 145 1,700 -591 Descending Potomac TRACON
Fri 08:01:01 PM 39.1333 -76.6333 322° Northwest 121 139 1,000 -650 Descending Potomac TRACON
Fri 08:01:55 PM 39.1500 -76.6500 322° Northwest 127 146 400 -667 Descending Potomac TRACON

Login

Don't have an account? Register now (free) for customized features, flight alerts, and more!